Time;durP1;ratioP1;P1;durP2;ratioP2;P2;SDS_P1;SDS_P2;PMS_P1;PMS_P2;Temp;Humidity;BMP_temperature;BMP_pressure;BME280_temperature;BME280_humidity;BME280_pressure;Samples;Min_cycle;Max_cycle;Signal;HPM_P1;HPM_P2
2023/09/27 00:01:18;;;;;;;4.70;4.35;;;;;;;;;;5042936;28;20238;-64
2023/09/27 00:03:46;;;;;;;4.75;4.35;;;;;;;;;;5039714;28;20219;-63
2023/09/27 00:06:14;;;;;;;6.80;4.25;;;;;;;;;;5045513;28;20230;-64
2023/09/27 00:08:42;;;;;;;4.55;4.30;;;;;;;;;;5043908;28;20212;-64
2023/09/27 00:11:09;;;;;;;4.50;4.20;;;;;;;;;;5045720;28;20230;-64
2023/09/27 00:13:37;;;;;;;4.50;4.20;;;;;;;;;;5045006;28;20700;-63
2023/09/27 00:16:04;;;;;;;4.55;4.25;;;;;;;;;;5030585;28;20211;-63
2023/09/27 00:18:31;;;;;;;4.22;4.03;;;;;;;;;;5046078;28;20247;-63
2023/09/27 00:20:58;;;;;;;4.78;4.38;;;;;;;;;;5044865;28;20232;-64
2023/09/27 00:23:25;;;;;;;4.55;4.28;;;;;;;;;;5043569;28;20258;-64
2023/09/27 00:25:52;;;;;;;4.30;3.80;;;;;;;;;;5044993;28;20227;-64
2023/09/27 00:28:19;;;;;;;5.03;4.25;;;;;;;;;;5045260;28;20703;-64
2023/09/27 00:30:50;;;;;;;4.57;4.28;;;;;;;;;;5044529;28;20301;-64
2023/09/27 00:33:17;;;;;;;5.88;4.00;;;;;;;;;;5044770;28;20215;-64
2023/09/27 00:35:48;;;;;;;5.10;4.47;;;;;;;;;;5044561;28;20580;-64
2023/09/27 00:38:15;;;;;;;4.85;4.00;;;;;;;;;;5044315;28;20215;-64
2023/09/27 00:40:45;;;;;;;4.82;4.43;;;;;;;;;;5044404;28;20261;-64
2023/09/27 00:43:25;;;;;;;4.07;3.80;;;;;;;;;;5045111;28;20227;-63
2023/09/27 00:45:53;;;;;;;4.60;4.10;;;;;;;;;;5044618;28;20541;-63
2023/09/27 00:48:20;;;;;;;3.92;3.72;;;;;;;;;;5045058;28;20213;-63
2023/09/27 00:50:47;;;;;;;4.40;4.03;;;;;;;;;;5044920;28;20585;-63
2023/09/27 00:53:14;;;;;;;3.97;3.80;;;;;;;;;;5044420;28;20709;-63
2023/09/27 00:55:43;;;;;;;3.97;3.67;;;;;;;;;;5044927;28;20211;-64
2023/09/27 00:58:11;;;;;;;4.53;4.05;;;;;;;;;;5045265;28;20311;-63
2023/09/27 01:00:39;;;;;;;3.72;3.42;;;;;;;;;;5045095;28;20227;-63
2023/09/27 01:03:07;;;;;;;4.10;3.90;;;;;;;;;;5045775;28;20212;-63
2023/09/27 01:05:34;;;;;;;3.60;3.40;;;;;;;;;;5045301;28;20208;-63
2023/09/27 01:08:02;;;;;;;3.50;3.30;;;;;;;;;;5045506;28;20424;-64
2023/09/27 01:10:29;;;;;;;4.22;3.85;;;;;;;;;;5046000;28;20196;-63
2023/09/27 01:12:56;;;;;;;4.40;4.10;;;;;;;;;;5045320;28;20207;-63
2023/09/27 01:15:23;;;;;;;4.05;3.75;;;;;;;;;;5046046;28;20216;-64
2023/09/27 01:17:59;;;;;;;3.90;3.63;;;;;;;;;;5045070;28;20744;-63
2023/09/27 01:20:28;;;;;;;5.50;3.22;;;;;;;;;;5046033;28;20242;-64
2023/09/27 01:22:58;;;;;;;4.53;3.67;;;;;;;;;;5044313;28;20297;-64
2023/09/27 01:25:27;;;;;;;4.05;3.75;;;;;;;;;;5045311;28;20202;-64
2023/09/27 01:27:55;;;;;;;3.63;3.42;;;;;;;;;;5044373;28;20208;-63
2023/09/27 01:30:22;;;;;;;5.68;3.88;;;;;;;;;;5045805;28;20203;-64
2023/09/27 01:32:49;;;;;;;3.80;3.60;;;;;;;;;;5043733;28;20203;-64
2023/09/27 01:35:16;;;;;;;5.57;3.92;;;;;;;;;;5031135;28;20207;-63
2023/09/27 01:37:43;;;;;;;3.60;3.40;;;;;;;;;;5048529;28;20665;-64
2023/09/27 01:40:17;;;;;;;3.60;3.30;;;;;;;;;;5049234;28;20222;-64
2023/09/27 01:42:44;;;;;;;3.60;3.38;;;;;;;;;;5044811;28;20259;-63
2023/09/27 01:45:13;;;;;;;4.82;3.60;;;;;;;;;;5047734;28;20212;-64
2023/09/27 01:47:40;;;;;;;2.88;2.78;;;;;;;;;;5049100;28;20932;-63
2023/09/27 01:50:08;;;;;;;3.63;3.42;;;;;;;;;;5048249;28;20208;-63
2023/09/27 01:52:35;;;;;;;3.92;3.60;;;;;;;;;;5048874;28;20212;-64
2023/09/27 01:55:02;;;;;;;3.25;3.05;;;;;;;;;;5048109;28;20210;-63
2023/09/27 01:57:31;;;;;;;8.55;3.42;;;;;;;;;;5047773;28;20223;-63
2023/09/27 01:59:58;;;;;;;3.75;3.45;;;;;;;;;;5045757;28;20225;-63
2023/09/27 02:02:25;;;;;;;4.72;3.55;;;;;;;;;;5044111;28;20255;-63
2023/09/27 02:04:52;;;;;;;4.35;3.50;;;;;;;;;;5048360;28;20203;-64
2023/09/27 02:07:19;;;;;;;3.67;3.47;;;;;;;;;;5047793;28;20215;-63
2023/09/27 02:09:46;;;;;;;3.60;3.20;;;;;;;;;;5047930;28;20207;-63
2023/09/27 02:12:13;;;;;;;3.30;3.20;;;;;;;;;;5047879;28;20733;-64
2023/09/27 02:14:42;;;;;;;3.63;3.43;;;;;;;;;;5048234;28;20203;-63
2023/09/27 02:17:09;;;;;;;3.90;3.60;;;;;;;;;;5048032;28;20210;-64
2023/09/27 02:19:36;;;;;;;3.90;3.45;;;;;;;;;;5047560;28;20238;-63
2023/09/27 02:22:03;;;;;;;3.22;3.13;;;;;;;;;;5047325;28;20231;-64
2023/09/27 02:24:31;;;;;;;3.53;3.33;;;;;;;;;;5047531;28;20302;-64
2023/09/27 02:26:58;;;;;;;4.03;3.63;;;;;;;;;;5047711;28;20822;-64
2023/09/27 02:29:26;;;;;;;3.70;3.50;;;;;;;;;;5046609;28;20238;-64
2023/09/27 02:31:54;;;;;;;3.60;3.40;;;;;;;;;;5047757;28;20285;-64
2023/09/27 02:34:21;;;;;;;3.58;3.38;;;;;;;;;;5042577;28;20471;-64
2023/09/27 02:36:49;;;;;;;4.57;3.75;;;;;;;;;;5047026;28;20290;-64
2023/09/27 02:39:16;;;;;;;4.33;3.93;;;;;;;;;;5047554;28;20208;-64
2023/09/27 02:41:43;;;;;;;3.47;3.28;;;;;;;;;;5047549;28;20319;-63
2023/09/27 02:44:11;;;;;;;4.03;3.73;;;;;;;;;;5047204;28;20231;-64
2023/09/27 02:46:38;;;;;;;3.30;3.00;;;;;;;;;;5046634;28;20693;-64
2023/09/27 02:49:07;;;;;;;3.60;3.30;;;;;;;;;;5046989;28;20306;-64
2023/09/27 02:51:34;;;;;;;4.27;3.80;;;;;;;;;;5046908;28;20211;-63
2023/09/27 02:54:01;;;;;;;10.30;4.00;;;;;;;;;;5047348;28;20222;-64
2023/09/27 02:56:28;;;;;;;3.10;3.00;;;;;;;;;;5046507;28;20204;-63
2023/09/27 02:58:56;;;;;;;4.67;3.50;;;;;;;;;;5047365;28;20204;-64
2023/09/27 03:01:23;;;;;;;3.43;3.23;;;;;;;;;;5047186;28;20234;-64
2023/09/27 03:03:50;;;;;;;4.00;3.80;;;;;;;;;;5047362;28;20207;-64
2023/09/27 03:06:19;;;;;;;3.87;3.47;;;;;;;;;;5047555;28;20577;-64
2023/09/27 03:08:46;;;;;;;3.73;3.43;;;;;;;;;;5047289;28;20270;-64
2023/09/27 03:11:13;;;;;;;3.97;3.70;;;;;;;;;;5047354;28;20265;-64
2023/09/27 03:13:41;;;;;;;4.38;4.03;;;;;;;;;;5046483;28;20215;-64
2023/09/27 03:16:08;;;;;;;7.00;3.73;;;;;;;;;;5046613;28;20207;-64
2023/09/27 03:18:35;;;;;;;4.27;3.97;;;;;;;;;;5047030;28;20230;-64
2023/09/27 03:21:02;;;;;;;3.40;3.30;;;;;;;;;;5046385;28;20728;-62
2023/09/27 03:23:31;;;;;;;3.47;3.20;;;;;;;;;;5045998;28;20242;-62
2023/09/27 03:25:58;;;;;;;3.50;3.30;;;;;;;;;;5045892;28;20216;-63
2023/09/27 03:28:25;;;;;;;4.00;3.53;;;;;;;;;;5045100;28;20211;-63
2023/09/27 03:30:52;;;;;;;3.77;3.47;;;;;;;;;;5042704;28;20196;-63
2023/09/27 03:33:19;;;;;;;3.90;3.50;;;;;;;;;;5046562;28;20611;-63
2023/09/27 03:35:46;;;;;;;3.10;3.00;;;;;;;;;;5045444;28;20215;-63
2023/09/27 03:38:13;;;;;;;3.58;3.22;;;;;;;;;;5038836;28;20218;-63
2023/09/27 03:40:42;;;;;;;4.07;3.78;;;;;;;;;;5045338;28;20257;-63
2023/09/27 03:43:09;;;;;;;3.80;3.60;;;;;;;;;;5046080;28;20204;-63
2023/09/27 03:45:36;;;;;;;3.60;3.40;;;;;;;;;;5045900;28;20215;-63
2023/09/27 03:48:04;;;;;;;3.57;3.40;;;;;;;;;;5030482;28;20204;-63
2023/09/27 03:50:31;;;;;;;3.30;3.20;;;;;;;;;;5046094;28;20798;-62
2023/09/27 03:52:58;;;;;;;4.17;3.87;;;;;;;;;;5045642;28;20210;-63
2023/09/27 03:55:25;;;;;;;4.23;3.90;;;;;;;;;;5045554;28;20208;-62
2023/09/27 03:57:54;;;;;;;3.53;3.33;;;;;;;;;;5044835;28;20231;-63
2023/09/27 04:00:21;;;;;;;3.77;3.47;;;;;;;;;;5046240;28;20211;-62
2023/09/27 04:02:49;;;;;;;3.93;3.73;;;;;;;;;;5045415;28;20951;-62
2023/09/27 04:05:18;;;;;;;4.07;3.73;;;;;;;;;;5046029;28;20210;-63
2023/09/27 04:07:46;;;;;;;4.67;4.20;;;;;;;;;;5045861;28;20301;-62
2023/09/27 04:10:13;;;;;;;4.33;4.10;;;;;;;;;;5045587;28;20856;-62
2023/09/27 04:12:40;;;;;;;3.80;3.60;;;;;;;;;;5044766;28;20219;-62
2023/09/27 04:15:10;;;;;;;4.63;4.20;;;;;;;;;;5045121;28;20217;-63
2023/09/27 04:17:37;;;;;;;3.80;3.53;;;;;;;;;;5044971;28;20257;-62
2023/09/27 04:20:14;;;;;;;3.50;3.30;;;;;;;;;;5045306;28;20227;-63
2023/09/27 04:22:43;;;;;;;3.70;3.50;;;;;;;;;;5044722;28;20310;-63
2023/09/27 04:25:12;;;;;;;4.20;3.90;;;;;;;;;;5045192;28;20204;-62
2023/09/27 04:27:39;;;;;;;4.40;3.60;;;;;;;;;;5045513;28;20227;-63
2023/09/27 04:30:07;;;;;;;5.63;4.03;;;;;;;;;;5044418;28;20741;-62
2023/09/27 04:32:36;;;;;;;4.30;4.00;;;;;;;;;;5045174;28;20336;-63
2023/09/27 04:35:03;;;;;;;5.03;3.80;;;;;;;;;;5045922;28;20265;-62
2023/09/27 04:37:30;;;;;;;4.33;3.97;;;;;;;;;;5045010;28;20624;-63
2023/09/27 04:39:57;;;;;;;5.27;4.17;;;;;;;;;;5045606;28;20212;-62
2023/09/27 04:42:24;;;;;;;6.30;3.77;;;;;;;;;;5044304;28;20285;-63
2023/09/27 04:44:51;;;;;;;3.97;3.67;;;;;;;;;;5034328;28;20356;-62
2023/09/27 04:47:18;;;;;;;4.07;3.77;;;;;;;;;;5035305;28;20214;-62
2023/09/27 04:49:47;;;;;;;4.50;4.10;;;;;;;;;;5045372;28;20219;-62
2023/09/27 04:52:14;;;;;;;4.77;4.37;;;;;;;;;;5045403;28;20230;-62
2023/09/27 04:54:41;;;;;;;4.17;3.97;;;;;;;;;;5044175;28;20644;-62
2023/09/27 04:57:08;;;;;;;9.47;4.97;;;;;;;;;;5042742;28;20212;-62
2023/09/27 04:59:36;;;;;;;5.53;5.03;;;;;;;;;;5039060;28;20214;-62
2023/09/27 05:02:03;;;;;;;4.63;4.23;;;;;;;;;;5045064;28;20602;-63
2023/09/27 05:04:30;;;;;;;5.97;4.13;;;;;;;;;;5033601;28;20211;-62
2023/09/27 05:06:59;;;;;;;4.80;4.50;;;;;;;;;;5044174;28;20208;-73
2023/09/27 05:09:26;;;;;;;6.80;4.23;;;;;;;;;;5041577;28;20643;-69
2023/09/27 05:11:53;;;;;;;5.07;4.63;;;;;;;;;;5045445;28;20321;-69
2023/09/27 05:14:20;;;;;;;6.17;4.33;;;;;;;;;;5049992;28;20204;-69
2023/09/27 05:16:48;;;;;;;4.90;4.50;;;;;;;;;;5046522;28;20200;-69
2023/09/27 05:19:15;;;;;;;5.37;4.90;;;;;;;;;;5038173;28;20219;-69
2023/09/27 05:21:42;;;;;;;5.30;4.90;;;;;;;;;;5049043;28;20227;-69
2023/09/27 05:24:11;;;;;;;4.60;4.30;;;;;;;;;;5049191;28;20200;-69
2023/09/27 05:26:38;;;;;;;6.82;4.00;;;;;;;;;;5048821;28;20214;-69
2023/09/27 05:29:05;;;;;;;4.47;4.07;;;;;;;;;;5048782;28;20230;-69
2023/09/27 05:31:32;;;;;;;3.93;3.63;;;;;;;;;;5049337;28;20634;-69
2023/09/27 05:33:59;;;;;;;4.80;4.30;;;;;;;;;;5045991;28;20298;-69
2023/09/27 05:36:26;;;;;;;4.30;4.00;;;;;;;;;;5048182;28;20203;-68
2023/09/27 05:38:53;;;;;;;4.67;4.20;;;;;;;;;;5048839;28;20680;-66
2023/09/27 05:41:22;;;;;;;4.27;3.97;;;;;;;;;;5048708;28;20253;-67
2023/09/27 05:43:50;;;;;;;4.77;4.40;;;;;;;;;;5045705;28;20873;-67
2023/09/27 05:46:17;;;;;;;4.37;4.07;;;;;;;;;;5048630;28;20298;-67
2023/09/27 05:48:45;;;;;;;4.77;4.40;;;;;;;;;;5048013;28;20313;-67
2023/09/27 05:51:12;;;;;;;4.50;4.30;;;;;;;;;;5045321;28;20227;-67
2023/09/27 05:53:39;;;;;;;5.53;4.40;;;;;;;;;;5044195;28;20832;-67
2023/09/27 05:56:07;;;;;;;4.30;4.00;;;;;;;;;;5048320;28;20238;-66
2023/09/27 05:58:37;;;;;;;4.27;3.77;;;;;;;;;;5048307;28;20211;-66
2023/09/27 06:01:04;;;;;;;4.00;3.80;;;;;;;;;;5048218;28;20207;-67
2023/09/27 06:03:31;;;;;;;4.90;4.07;;;;;;;;;;5048119;28;20701;-67
2023/09/27 06:05:59;;;;;;;5.10;4.60;;;;;;;;;;5042252;28;20207;-66
2023/09/27 06:08:26;;;;;;;4.33;4.03;;;;;;;;;;5046277;28;20227;-66
2023/09/27 06:10:53;;;;;;;4.43;4.10;;;;;;;;;;5046846;28;20215;-66
2023/09/27 06:13:20;;;;;;;5.30;3.90;;;;;;;;;;5048110;28;20207;-67
2023/09/27 06:15:49;;;;;;;3.65;3.47;;;;;;;;;;5048163;28;20444;-66
2023/09/27 06:18:16;;;;;;;4.60;4.30;;;;;;;;;;5047363;28;20318;-67
2023/09/27 06:20:43;;;;;;;4.37;4.07;;;;;;;;;;5048130;28;20251;-66
2023/09/27 06:23:10;;;;;;;4.50;4.10;;;;;;;;;;5046655;28;20315;-66
2023/09/27 06:25:40;;;;;;;4.00;3.80;;;;;;;;;;5039110;28;20331;-67
2023/09/27 06:28:07;;;;;;;3.93;3.53;;;;;;;;;;5028461;28;20216;-67
2023/09/27 06:30:34;;;;;;;3.97;3.77;;;;;;;;;;5028434;28;20208;-67
2023/09/27 06:33:02;;;;;;;3.50;3.30;;;;;;;;;;5043992;28;20239;-67
2023/09/27 06:35:31;;;;;;;3.13;3.03;;;;;;;;;;5040549;28;20673;-67
2023/09/27 06:38:00;;;;;;;5.07;3.50;;;;;;;;;;5039891;28;20298;-67
2023/09/27 06:40:29;;;;;;;3.80;3.60;;;;;;;;;;5036171;28;20212;-66
2023/09/27 06:42:56;;;;;;;3.28;3.13;;;;;;;;;;5036837;28;20358;-67
2023/09/27 06:45:25;;;;;;;3.75;3.55;;;;;;;;;;5040300;28;20200;-67
2023/09/27 06:47:56;;;;;;;4.50;3.63;;;;;;;;;;5039837;28;20287;-67
2023/09/27 06:50:25;;;;;;;5.85;5.38;;;;;;;;;;5040007;28;20326;-67
2023/09/27 06:52:52;;;;;;;8.85;6.55;;;;;;;;;;5039404;28;20235;-63
2023/09/27 06:55:19;;;;;;;6.72;6.13;;;;;;;;;;5041509;28;20306;-67
2023/09/27 06:57:48;;;;;;;7.25;5.95;;;;;;;;;;5040764;28;20211;-68
2023/09/27 07:00:18;;;;;;;7.03;6.53;;;;;;;;;;5047094;28;20678;-68
2023/09/27 07:02:45;;;;;;;7.25;6.55;;;;;;;;;;5044182;28;20283;-68
2023/09/27 07:05:12;;;;;;;7.10;6.38;;;;;;;;;;5028341;28;20259;-68
2023/09/27 07:07:41;;;;;;;6.85;6.15;;;;;;;;;;5028396;28;20590;-68
2023/09/27 07:10:08;;;;;;;7.22;6.47;;;;;;;;;;5045709;28;20712;-67
2023/09/27 07:12:35;;;;;;;6.20;5.65;;;;;;;;;;5047843;28;20299;-67
2023/09/27 07:15:04;;;;;;;6.72;6.15;;;;;;;;;;5047726;28;20200;-68
2023/09/27 07:17:32;;;;;;;6.88;6.28;;;;;;;;;;5047388;28;20771;-68
2023/09/27 07:19:59;;;;;;;6.50;6.00;;;;;;;;;;5040587;28;20240;-68
2023/09/27 07:22:26;;;;;;;9.50;7.10;;;;;;;;;;5046166;28;20231;-68
2023/09/27 07:24:54;;;;;;;6.95;6.35;;;;;;;;;;5047960;28;20214;-68
2023/09/27 07:27:21;;;;;;;7.03;6.38;;;;;;;;;;5047154;28;20669;-68
2023/09/27 07:29:48;;;;;;;7.22;6.68;;;;;;;;;;5040073;28;20222;-68
2023/09/27 07:32:16;;;;;;;7.15;6.45;;;;;;;;;;5046457;28;20224;-68
2023/09/27 07:34:43;;;;;;;7.78;6.78;;;;;;;;;;5046526;28;20212;-68
2023/09/27 07:37:10;;;;;;;7.25;6.55;;;;;;;;;;5047406;28;20200;-68
2023/09/27 07:39:38;;;;;;;6.93;6.38;;;;;;;;;;5046819;28;20214;-68
2023/09/27 07:42:06;;;;;;;7.45;6.75;;;;;;;;;;5046360;28;20295;-68
2023/09/27 07:44:33;;;;;;;7.28;6.53;;;;;;;;;;5047543;28;20578;-68
2023/09/27 07:47:00;;;;;;;7.20;6.50;;;;;;;;;;5042776;28;20211;-68
2023/09/27 07:49:27;;;;;;;6.82;6.22;;;;;;;;;;5047169;28;20255;-69
2023/09/27 07:51:55;;;;;;;7.63;6.93;;;;;;;;;;5046934;28;20206;-68
2023/09/27 07:54:23;;;;;;;7.40;6.70;;;;;;;;;;5046611;28;20200;-68
2023/09/27 07:56:51;;;;;;;7.47;6.78;;;;;;;;;;5046825;28;20204;-68
2023/09/27 07:59:19;;;;;;;7.80;7.10;;;;;;;;;;5047016;28;20303;-68
2023/09/27 08:01:46;;;;;;;7.47;6.88;;;;;;;;;;5046514;28;20208;-68
2023/09/27 08:04:15;;;;;;;7.85;7.13;;;;;;;;;;5046515;28;20231;-68
2023/09/27 08:06:45;;;;;;;8.40;7.60;;;;;;;;;;5046534;28;20196;-68
2023/09/27 08:09:13;;;;;;;9.95;7.00;;;;;;;;;;5040444;28;20218;-74
2023/09/27 08:11:41;;;;;;;8.40;7.47;;;;;;;;;;5045305;28;20204;-69
2023/09/27 08:14:08;;;;;;;7.63;6.93;;;;;;;;;;5046886;28;20203;-72
2023/09/27 08:16:36;;;;;;;8.30;6.82;;;;;;;;;;5036664;28;20212;-68
2023/09/27 08:19:03;;;;;;;8.48;7.60;;;;;;;;;;5045788;28;20796;-69
2023/09/27 08:21:31;;;;;;;7.97;7.28;;;;;;;;;;5046291;28;20673;-68
2023/09/27 08:23:58;;;;;;;8.93;7.60;;;;;;;;;;5044247;28;20219;-69
2023/09/27 08:26:26;;;;;;;8.68;7.78;;;;;;;;;;5045296;28;20674;-69
2023/09/27 08:28:53;;;;;;;9.80;8.80;;;;;;;;;;5045760;28;20657;-70
2023/09/27 08:31:20;;;;;;;8.02;7.22;;;;;;;;;;5044440;28;20209;-72
2023/09/27 08:33:48;;;;;;;10.82;8.30;;;;;;;;;;5045653;28;20932;-68
2023/09/27 08:36:15;;;;;;;9.88;8.82;;;;;;;;;;5039793;28;20211;-69
2023/09/27 08:38:42;;;;;;;10.82;9.00;;;;;;;;;;5040890;28;20204;-69
2023/09/27 08:41:10;;;;;;;10.50;9.23;;;;;;;;;;5045462;28;20202;-70
2023/09/27 08:43:37;;;;;;;11.85;7.85;;;;;;;;;;5041962;28;20231;-70
2023/09/27 08:46:05;;;;;;;9.82;8.82;;;;;;;;;;5048695;28;20716;-70
2023/09/27 08:48:32;;;;;;;10.13;9.07;;;;;;;;;;5033440;28;20647;-70
2023/09/27 08:51:04;;;;;;;9.48;8.43;;;;;;;;;;5047928;28;20704;-70
2023/09/27 08:53:34;;;;;;;13.25;9.35;;;;;;;;;;5049883;28;20211;-66
2023/09/27 08:56:04;;;;;;;13.63;9.07;;;;;;;;;;5034092;28;20204;-64
2023/09/27 08:58:34;;;;;;;11.02;9.68;;;;;;;;;;5046037;28;20240;-63
2023/09/27 09:01:01;;;;;;;11.90;8.65;;;;;;;;;;5049976;28;20588;-63
2023/09/27 09:03:28;;;;;;;9.50;8.50;;;;;;;;;;5049480;28;20231;-62
2023/09/27 09:05:56;;;;;;;12.20;8.93;;;;;;;;;;5047607;28;20211;-62
2023/09/27 09:08:24;;;;;;;11.48;9.60;;;;;;;;;;5048531;28;20685;-63
2023/09/27 09:10:55;;;;;;;12.45;9.43;;;;;;;;;;5049007;28;20200;-66
2023/09/27 09:13:22;;;;;;;12.60;9.10;;;;;;;;;;5047491;28;20254;-77
2023/09/27 09:15:51;;;;;;;9.02;7.78;;;;;;;;;;5048599;28;20760;-64
2023/09/27 09:21:18;;;;;;;10.70;8.68;;;;;;;;;;5026594;28;20306;-63
2023/09/27 09:23:49;;;;;;;9.32;8.40;;;;;;;;;;5047503;28;20233;-63
2023/09/27 09:26:26;;;;;;;10.02;8.60;;;;;;;;;;5048678;28;20207;-62
2023/09/27 09:28:55;;;;;;;11.15;9.65;;;;;;;;;;5048805;28;20242;-61
2023/09/27 09:31:23;;;;;;;11.52;9.95;;;;;;;;;;5048442;28;20235;-62
2023/09/27 09:34:03;;;;;;;10.40;8.95;;;;;;;;;;5048837;28;20238;-62
2023/09/27 09:36:30;;;;;;;14.75;10.85;;;;;;;;;;5045447;28;20307;-62
2023/09/27 09:39:05;;;;;;;11.63;10.43;;;;;;;;;;5038684;28;20258;-63
2023/09/27 09:41:44;;;;;;;11.85;9.30;;;;;;;;;;5036126;28;20264;-63
2023/09/27 09:44:18;;;;;;;15.48;11.35;;;;;;;;;;5047056;28;20223;-63
2023/09/27 09:46:45;;;;;;;15.13;11.18;;;;;;;;;;5042966;28;20223;-65
2023/09/27 09:49:12;;;;;;;12.75;10.98;;;;;;;;;;5040327;28;20281;-63
2023/09/27 09:51:42;;;;;;;13.10;11.27;;;;;;;;;;5047275;28;20218;-63
2023/09/27 09:54:10;;;;;;;12.73;11.00;;;;;;;;;;5037775;28;20201;-68
2023/09/27 09:56:39;;;;;;;13.27;10.00;;;;;;;;;;5041531;28;20210;-64
2023/09/27 09:59:09;;;;;;;11.45;10.30;;;;;;;;;;5028458;28;20223;-63
2023/09/27 10:01:38;;;;;;;13.60;11.18;;;;;;;;;;5028126;28;20299;-63
2023/09/27 10:04:06;;;;;;;16.45;12.38;;;;;;;;;;5042021;28;20251;-63
2023/09/27 10:06:34;;;;;;;15.43;11.98;;;;;;;;;;5036037;28;20936;-64
2023/09/27 10:09:03;;;;;;;13.82;11.57;;;;;;;;;;5036323;28;20213;-63
2023/09/27 10:11:31;;;;;;;10.88;9.70;;;;;;;;;;5032718;28;20609;-64
2023/09/27 10:14:00;;;;;;;12.73;10.50;;;;;;;;;;5047811;28;20211;-63
2023/09/27 10:16:27;;;;;;;11.77;10.05;;;;;;;;;;5031474;28;20209;-63
2023/09/27 10:18:55;;;;;;;12.65;11.30;;;;;;;;;;5036658;28;20255;-63
2023/09/27 10:21:23;;;;;;;11.00;9.82;;;;;;;;;;5036557;28;20199;-64
2023/09/27 10:24:11;;;;;;;11.85;10.60;;;;;;;;;;5047526;28;20219;-64
2023/09/27 10:26:39;;;;;;;10.95;9.82;;;;;;;;;;5046839;28;20231;-64
2023/09/27 10:29:10;;;;;;;11.40;10.25;;;;;;;;;;5034592;28;20208;-64
2023/09/27 10:31:38;;;;;;;10.38;9.38;;;;;;;;;;5048068;28;20200;-64
2023/09/27 10:34:28;;;;;;;8.88;8.07;;;;;;;;;;5047580;28;20257;-64
2023/09/27 10:36:55;;;;;;;12.73;9.10;;;;;;;;;;5047496;28;20215;-64
2023/09/27 10:39:22;;;;;;;10.82;9.57;;;;;;;;;;5046726;28;20203;-64
2023/09/27 10:41:52;;;;;;;9.25;8.23;;;;;;;;;;5036086;28;20215;-63
2023/09/27 10:44:30;;;;;;;9.05;8.25;;;;;;;;;;5044888;28;20235;-64
2023/09/27 10:46:57;;;;;;;9.65;8.70;;;;;;;;;;5035220;28;20232;-64
2023/09/27 10:49:25;;;;;;;12.18;8.77;;;;;;;;;;5037855;28;20300;-63
2023/09/27 10:51:52;;;;;;;8.95;8.05;;;;;;;;;;5039520;28;20292;-63
2023/09/27 10:54:22;;;;;;;8.32;7.57;;;;;;;;;;5045391;28;20714;-64
2023/09/27 10:56:53;;;;;;;7.93;6.78;;;;;;;;;;5046329;28;20212;-64
2023/09/27 10:59:26;;;;;;;8.15;7.35;;;;;;;;;;5043358;28;20269;-63
2023/09/27 11:01:54;;;;;;;7.93;7.15;;;;;;;;;;5027164;28;20216;-63
2023/09/27 11:04:22;;;;;;;8.55;6.85;;;;;;;;;;5041541;28;20247;-65
2023/09/27 11:06:49;;;;;;;6.97;6.38;;;;;;;;;;5040958;28;20208;-62
2023/09/27 11:09:19;;;;;;;7.35;6.78;;;;;;;;;;5035627;28;20303;-63
2023/09/27 11:11:46;;;;;;;9.77;8.35;;;;;;;;;;5031023;28;20747;-63
2023/09/27 11:14:25;;;;;;;10.00;7.70;;;;;;;;;;5044752;28;20200;-62
2023/09/27 11:16:53;;;;;;;8.40;7.60;;;;;;;;;;5031435;28;20212;-62
2023/09/27 11:19:30;;;;;;;7.97;7.25;;;;;;;;;;5047250;28;20223;-70
2023/09/27 11:21:57;;;;;;;11.02;8.90;;;;;;;;;;5033829;28;20231;-63
2023/09/27 11:24:37;;;;;;;8.05;7.25;;;;;;;;;;5047043;28;20235;-64
2023/09/27 11:27:04;;;;;;;8.52;7.57;;;;;;;;;;5041692;28;20231;-64
2023/09/27 11:29:33;;;;;;;8.18;7.40;;;;;;;;;;5042078;28;20223;-65
2023/09/27 11:32:00;;;;;;;12.38;8.40;;;;;;;;;;5039145;28;20670;-66
2023/09/27 11:34:27;;;;;;;10.20;8.50;;;;;;;;;;5041528;28;20204;-66
2023/09/27 11:36:55;;;;;;;8.90;8.20;;;;;;;;;;5040286;28;20216;-67
2023/09/27 11:39:27;;;;;;;8.55;7.75;;;;;;;;;;5035162;28;20291;-67
2023/09/27 11:41:58;;;;;;;8.93;8.13;;;;;;;;;;5042448;28;20211;-66
2023/09/27 11:44:26;;;;;;;9.75;7.95;;;;;;;;;;5035743;28;20332;-71
2023/09/27 11:47:04;;;;;;;9.77;7.40;;;;;;;;;;5045050;28;20200;-67
2023/09/27 11:49:32;;;;;;;8.50;7.60;;;;;;;;;;5045208;28;20258;-68
2023/09/27 11:51:59;;;;;;;10.77;6.85;;;;;;;;;;5044792;28;20199;-66
2023/09/27 11:54:26;;;;;;;8.40;7.20;;;;;;;;;;5033712;28;20215;-66
2023/09/27 11:56:54;;;;;;;8.38;7.68;;;;;;;;;;5039511;28;20229;-66
2023/09/27 11:59:21;;;;;;;8.77;7.88;;;;;;;;;;5039634;28;20325;-67
2023/09/27 12:01:50;;;;;;;9.80;8.80;;;;;;;;;;5036065;28;20652;-66
2023/09/27 12:04:19;;;;;;;7.82;6.95;;;;;;;;;;5026331;28;20676;-66
2023/09/27 12:06:46;;;;;;;8.13;7.32;;;;;;;;;;5039643;28;20275;-66
2023/09/27 12:09:14;;;;;;;7.75;6.90;;;;;;;;;;5032817;28;20227;-66
2023/09/27 12:11:41;;;;;;;8.57;6.30;;;;;;;;;;5032416;28;20204;-68
2023/09/27 12:14:08;;;;;;;7.60;6.32;;;;;;;;;;5023152;28;20207;-67
2023/09/27 12:16:35;;;;;;;7.07;5.47;;;;;;;;;;5030738;28;20685;-68
2023/09/27 12:19:02;;;;;;;7.22;5.82;;;;;;;;;;5036991;28;20227;-72
2023/09/27 12:21:34;;;;;;;6.13;5.30;;;;;;;;;;5039550;28;20235;-74
2023/09/27 12:24:01;;;;;;;6.30;5.68;;;;;;;;;;5040428;28;20233;-67
2023/09/27 12:26:29;;;;;;;5.43;5.05;;;;;;;;;;5041897;28;20207;-70
2023/09/27 12:28:57;;;;;;;5.22;4.82;;;;;;;;;;5038218;28;20239;-70
2023/09/27 12:31:24;;;;;;;4.00;3.80;;;;;;;;;;5038853;28;20318;-65
2023/09/27 12:33:51;;;;;;;4.60;4.20;;;;;;;;;;5035903;28;20216;-66
2023/09/27 12:36:18;;;;;;;4.18;3.97;;;;;;;;;;5038714;28;20199;-67
2023/09/27 12:38:47;;;;;;;4.65;4.35;;;;;;;;;;5037192;28;20204;-62
2023/09/27 12:41:14;;;;;;;5.07;4.78;;;;;;;;;;5034712;28;20204;-65
2023/09/27 12:43:41;;;;;;;5.60;4.97;;;;;;;;;;5020800;28;20220;-69
2023/09/27 12:46:09;;;;;;;5.72;5.15;;;;;;;;;;5022470;28;20411;-63
2023/09/27 12:48:36;;;;;;;4.55;4.18;;;;;;;;;;5020370;28;20213;-63
2023/09/27 12:51:03;;;;;;;4.95;4.55;;;;;;;;;;5025193;28;20208;-63
2023/09/27 12:53:30;;;;;;;4.78;4.47;;;;;;;;;;5038024;28;20218;-63
2023/09/27 12:55:58;;;;;;;4.50;4.20;;;;;;;;;;5038261;28;20290;-63
2023/09/27 12:58:25;;;;;;;5.85;5.35;;;;;;;;;;5036279;28;20204;-63
2023/09/27 13:00:52;;;;;;;4.72;4.38;;;;;;;;;;5039264;28;20360;-63
2023/09/27 13:03:19;;;;;;;7.60;4.10;;;;;;;;;;5040353;28;20588;-63
2023/09/27 13:05:46;;;;;;;4.80;4.40;;;;;;;;;;5041889;28;20238;-63
2023/09/27 13:08:13;;;;;;;8.50;4.55;;;;;;;;;;5041596;28;20223;-63
2023/09/27 13:10:40;;;;;;;4.75;4.20;;;;;;;;;;5039423;28;20575;-63
2023/09/27 13:13:09;;;;;;;4.97;4.55;;;;;;;;;;5042018;28;20769;-63
2023/09/27 13:15:36;;;;;;;4.45;4.03;;;;;;;;;;5039705;28;20303;-62
2023/09/27 13:18:04;;;;;;;4.15;3.75;;;;;;;;;;5041582;28;20228;-64
2023/09/27 13:20:31;;;;;;;4.68;4.30;;;;;;;;;;5039340;28;20687;-63
2023/09/27 13:22:58;;;;;;;3.97;3.72;;;;;;;;;;5040211;28;20960;-61
2023/09/27 13:25:25;;;;;;;5.25;4.05;;;;;;;;;;5041287;28;20227;-62
2023/09/27 13:27:52;;;;;;;11.02;4.03;;;;;;;;;;5037346;28;20207;-63
2023/09/27 13:30:21;;;;;;;4.05;3.85;;;;;;;;;;5037923;28;20219;-62
2023/09/27 13:32:48;;;;;;;4.15;3.85;;;;;;;;;;5038979;28;20207;-62
2023/09/27 13:35:15;;;;;;;3.85;3.60;;;;;;;;;;5040075;28;20295;-63
2023/09/27 13:37:44;;;;;;;3.63;3.50;;;;;;;;;;5038986;28;20692;-63
2023/09/27 13:40:12;;;;;;;4.25;4.03;;;;;;;;;;5038944;28;20305;-63
2023/09/27 13:42:40;;;;;;;5.30;4.32;;;;;;;;;;5032600;28;20266;-62
2023/09/27 13:45:08;;;;;;;5.10;3.70;;;;;;;;;;5037092;28;20697;-62
2023/09/27 13:47:36;;;;;;;5.10;4.53;;;;;;;;;;5038960;28;20240;-61
2023/09/27 13:50:04;;;;;;;7.65;4.60;;;;;;;;;;5042983;28;20215;-63
2023/09/27 13:52:32;;;;;;;4.90;4.55;;;;;;;;;;5028645;28;20876;-63
2023/09/27 13:54:59;;;;;;;4.20;4.03;;;;;;;;;;5040769;28;20304;-65
2023/09/27 13:57:27;;;;;;;3.70;3.60;;;;;;;;;;5039535;28;20215;-69
2023/09/27 13:59:54;;;;;;;4.05;3.70;;;;;;;;;;5044856;28;20767;-69
2023/09/27 14:02:21;;;;;;;4.03;3.72;;;;;;;;;;5028554;28;20212;-64
2023/09/27 14:04:51;;;;;;;4.20;3.55;;;;;;;;;;5040828;28;20273;-65
2023/09/27 14:07:18;;;;;;;4.38;4.18;;;;;;;;;;5043609;28;20203;-63
2023/09/27 14:09:45;;;;;;;4.30;4.10;;;;;;;;;;5039499;28;20219;-63
2023/09/27 14:12:12;;;;;;;4.03;3.83;;;;;;;;;;5044034;28;20678;-66
2023/09/27 14:14:39;;;;;;;3.80;3.70;;;;;;;;;;5041978;28;20211;-65
2023/09/27 14:17:06;;;;;;;4.15;3.95;;;;;;;;;;5044135;28;20211;-66
2023/09/27 14:19:34;;;;;;;3.90;3.70;;;;;;;;;;5038938;28;20226;-66
2023/09/27 14:22:02;;;;;;;3.60;3.40;;;;;;;;;;5040634;28;20338;-67
2023/09/27 14:24:31;;;;;;;18.95;16.90;;;;;;;;;;5040775;28;20432;-67
2023/09/27 14:26:58;;;;;;;4.45;3.90;;;;;;;;;;5044409;28;20215;-67
2023/09/27 14:29:25;;;;;;;3.65;3.55;;;;;;;;;;5042218;28;20235;-68
2023/09/27 14:31:52;;;;;;;3.95;3.75;;;;;;;;;;5044256;28;20211;-65
2023/09/27 14:34:20;;;;;;;3.90;3.70;;;;;;;;;;5043641;28;20203;-65
2023/09/27 14:36:47;;;;;;;5.50;5.10;;;;;;;;;;5043199;28;20206;-64
2023/09/27 14:39:17;;;;;;;4.30;4.03;;;;;;;;;;5043816;28;20223;-64
2023/09/27 14:41:46;;;;;;;4.57;4.10;;;;;;;;;;5040965;28;20212;-69
2023/09/27 14:44:13;;;;;;;4.05;3.75;;;;;;;;;;5027815;28;20738;-67
2023/09/27 14:46:41;;;;;;;4.20;3.90;;;;;;;;;;5037725;28;20667;-65
2023/09/27 14:49:09;;;;;;;5.53;4.28;;;;;;;;;;5038399;28;20235;-65